Time;durP1;ratioP1;P1;durP2;ratioP2;P2;SDS_P1;SDS_P2;PMS_P1;PMS_P2;Temp;Humidity;BMP_temperature;BMP_pressure;BME280_temperature;BME280_humidity;BME280_pressure;Samples;Min_cycle;Max_cycle;Signal;HPM_P1;HPM_P2
2022/06/27 00:02:15;;;;;;;1.27;0.20;;;20.80;90.20;;;;;;5030679;28;20402;-74
2022/06/27 00:04:42;;;;;;;1.50;0.20;;;21.10;89.40;;;;;;5034140;28;21186;-75
2022/06/27 00:07:11;;;;;;;3.95;0.65;;;21.10;88.60;;;;;;5032616;28;20168;-76
2022/06/27 00:09:39;;;;;;;3.33;0.35;;;21.10;88.50;;;;;;5034747;28;20450;-77
2022/06/27 00:12:08;;;;;;;0.90;0.20;;;21.40;88.40;;;;;;5033728;28;20029;-77
2022/06/27 00:14:37;;;;;;;0.70;0.10;;;21.60;86.60;;;;;;5038508;28;20124;-77
2022/06/27 00:17:04;;;;;;;0.73;0.28;;;21.50;86.70;;;;;;5036606;28;20116;-76
2022/06/27 00:19:32;;;;;;;0.52;0.10;;;21.50;86.50;;;;;;5032340;28;20029;-75
2022/06/27 00:21:59;;;;;;;1.67;0.10;;;21.80;85.80;;;;;;5031695;28;20048;-76
2022/06/27 00:24:27;;;;;;;1.50;0.20;;;21.90;86.10;;;;;;5032771;28;20426;-76
2022/06/27 00:26:54;;;;;;;0.55;0.20;;;21.80;86.30;;;;;;5033891;28;20126;-76
2022/06/27 00:29:21;;;;;;;1.58;0.20;;;22.10;84.50;;;;;;5035245;28;20029;-77
2022/06/27 00:31:49;;;;;;;1.98;0.10;;;21.90;84.70;;;;;;5041052;28;20025;-74
2022/06/27 00:34:16;;;;;;;1.27;0.25;;;22.00;82.50;;;;;;5034206;28;20029;-75
2022/06/27 00:36:44;;;;;;;4.45;0.20;;;22.10;82.90;;;;;;5040518;28;20039;-76
2022/06/27 00:39:11;;;;;;;0.15;0.10;;;22.50;83.80;;;;;;5035731;28;20087;-76
2022/06/27 00:41:39;;;;;;;1.33;0.65;;;22.90;82.40;;;;;;5033049;28;20044;-75
2022/06/27 00:44:06;;;;;;;0.95;0.28;;;23.20;81.80;;;;;;5034240;28;20099;-76
2022/06/27 00:46:34;;;;;;;0.03;0.03;;;23.30;81.40;;;;;;5034825;28;20099;-74
2022/06/27 00:49:01;;;;;;;0.17;0.03;;;23.40;80.00;;;;;;5041020;28;20079;-76
2022/06/27 00:51:28;;;;;;;0.30;0.20;;;23.70;80.00;;;;;;5041738;28;20513;-75
2022/06/27 00:53:56;;;;;;;1.75;0.20;;;23.70;79.50;;;;;;5034556;28;20032;-77
2022/06/27 00:56:24;;;;;;;1.65;0.10;;;23.60;79.10;;;;;;5038914;28;20116;-74
2022/06/27 00:58:51;;;;;;;0.70;0.20;;;23.70;79.80;;;;;;5033973;28;20026;-74
2022/06/27 01:01:18;;;;;;;1.98;0.10;;;24.00;78.30;;;;;;5030365;28;20135;-75
2022/06/27 01:03:46;;;;;;;1.45;0.10;;;23.90;78.70;;;;;;5032882;28;20044;-74
2022/06/27 01:06:13;;;;;;;2.67;0.20;;;23.90;78.80;;;;;;5032304;28;20033;-76
2022/06/27 01:08:40;;;;;;;2.50;0.20;;;24.20;77.90;;;;;;5046877;28;20033;-76
2022/06/27 01:11:08;;;;;;;1.75;0.20;;;24.30;77.80;;;;;;5045726;28;20482;-76
2022/06/27 01:13:35;;;;;;;3.40;1.00;;;24.60;79.10;;;;;;5039086;28;20052;-74
2022/06/27 01:16:03;;;;;;;0.88;0.10;;;24.70;76.40;;;;;;5049909;28;20033;-75
2022/06/27 01:18:30;;;;;;;0.55;0.10;;;24.50;76.50;;;;;;5044714;28;20075;-75
2022/06/27 01:20:59;;;;;;;2.08;0.20;;;24.10;78.00;;;;;;5031290;28;20032;-75
2022/06/27 01:23:27;;;;;;;0.70;0.10;;;24.10;77.00;;;;;;5050405;28;20052;-75
2022/06/27 01:25:54;;;;;;;0.20;0.10;;;24.20;76.40;;;;;;5047651;28;20055;-76
2022/06/27 01:28:21;;;;;;;0.43;0.10;;;24.30;76.00;;;;;;5050216;28;20033;-77
2022/06/27 01:30:49;;;;;;;0.60;0.15;;;24.60;76.00;;;;;;5050227;28;20017;-76
2022/06/27 01:33:16;;;;;;;0.47;0.30;;;24.70;76.60;;;;;;5046148;28;20067;-76
2022/06/27 01:35:44;;;;;;;0.70;0.10;;;24.20;76.60;;;;;;5050583;28;20551;-77
2022/06/27 01:38:11;;;;;;;1.85;0.22;;;24.70;76.60;;;;;;5047721;28;20486;-74
2022/06/27 01:40:39;;;;;;;0.40;0.20;;;25.00;75.00;;;;;;5050143;28;20100;-76
2022/06/27 01:43:06;;;;;;;2.75;0.20;;;24.60;76.00;;;;;;5036882;28;20933;-77
2022/06/27 01:45:34;;;;;;;0.57;0.10;;;24.50;75.30;;;;;;5051004;28;20912;-76
2022/06/27 01:48:01;;;;;;;0.13;0.10;;;24.50;75.10;;;;;;5033997;28;20491;-74
2022/06/27 01:50:31;;;;;;;0.03;0.03;;;24.80;74.70;;;;;;5032589;28;20180;-76
2022/06/27 01:53:01;;;;;;;0.10;0.10;;;25.10;74.50;;;;;;5035503;28;20371;-76
2022/06/27 01:55:28;;;;;;;1.83;0.55;;;24.90;75.60;;;;;;5049524;28;20412;-76
2022/06/27 01:57:56;;;;;;;0.30;0.10;;;25.40;74.30;;;;;;5047980;28;20063;-75
2022/06/27 02:00:23;;;;;;;0.82;0.20;;;25.30;73.70;;;;;;5048522;28;20025;-74
2022/06/27 02:02:51;;;;;;;1.48;0.10;;;25.40;73.50;;;;;;5048397;28;20134;-73
2022/06/27 02:05:18;;;;;;;0.90;0.10;;;25.50;73.60;;;;;;5049040;28;20575;-75
2022/06/27 02:07:46;;;;;;;0.20;0.10;;;25.50;73.30;;;;;;5045031;28;20029;-75
2022/06/27 02:10:14;;;;;;;1.13;0.20;;;25.50;72.80;;;;;;5030763;28;20033;-75
2022/06/27 02:12:41;;;;;;;0.25;0.10;;;25.60;73.10;;;;;;5046697;28;20060;-73
2022/06/27 02:15:09;;;;;;;0.10;0.10;;;25.80;73.00;;;;;;5034000;28;20037;-75
2022/06/27 02:17:37;;;;;;;0.80;0.17;;;25.80;72.20;;;;;;5031485;28;20706;-75
2022/06/27 02:20:07;;;;;;;2.55;0.45;;;25.20;72.90;;;;;;5030370;28;20031;-74
2022/06/27 02:22:34;;;;;;;0.55;0.17;;;24.90;74.20;;;;;;5030654;28;20034;-75
2022/06/27 02:25:02;;;;;;;1.48;0.20;;;24.20;73.30;;;;;;5039070;28;20151;-73
2022/06/27 02:27:31;;;;;;;0.30;0.10;;;22.70;74.70;;;;;;5031055;28;20124;-73
2022/06/27 02:29:59;;;;;;;1.55;0.17;;;22.90;75.90;;;;;;5032081;28;20061;-75
2022/06/27 02:32:28;;;;;;;0.55;0.10;;;23.50;75.00;;;;;;5032167;28;20536;-74
2022/06/27 02:34:59;;;;;;;1.02;0.20;;;22.60;75.40;;;;;;5029667;28;20025;-73
2022/06/27 02:37:27;;;;;;;2.03;0.68;;;21.30;77.00;;;;;;5029704;28;20043;-72
2022/06/27 02:39:57;;;;;;;1.05;0.10;;;20.00;79.00;;;;;;5029414;28;20027;-73
2022/06/27 02:42:26;;;;;;;0.57;0.30;;;19.10;80.70;;;;;;5033252;28;20031;-74
2022/06/27 02:44:54;;;;;;;0.95;0.20;;;18.70;81.50;;;;;;5030665;28;20021;-74
2022/06/27 02:47:23;;;;;;;0.63;0.10;;;19.80;80.40;;;;;;5043080;28;20029;-73
2022/06/27 02:49:50;;;;;;;0.17;0.08;;;19.90;79.30;;;;;;5029987;28;21705;-73
2022/06/27 02:52:36;;;;;;;0.60;0.10;;;19.50;79.70;;;;;;5029362;28;20079;-73
2022/06/27 02:55:26;;;;;;;0.40;0.10;;;19.20;79.50;;;;;;5031119;28;20029;-77
2022/06/27 02:58:38;;;;;;;0.45;0.20;;;19.00;80.50;;;;;;5030239;28;20030;-73
2022/06/27 03:01:06;;;;;;;0.77;0.20;;;18.70;81.10;;;;;;5001120;28;20034;-74
2022/06/27 03:03:34;;;;;;;0.70;0.20;;;18.50;81.30;;;;;;5030205;28;20040;-75
2022/06/27 03:06:04;;;;;;;1.63;0.20;;;18.30;82.10;;;;;;5028287;28;20026;-75
2022/06/27 03:08:57;;;;;;;1.38;0.30;;;18.10;82.70;;;;;;5028356;28;20037;-74
2022/06/27 03:11:25;;;;;;;0.35;0.10;;;18.10;82.90;;;;;;5030352;28;20040;-74
2022/06/27 03:13:54;;;;;;;0.38;0.30;;;18.00;82.20;;;;;;5031757;28;20099;-74
2022/06/27 03:16:24;;;;;;;2.88;0.30;;;17.90;81.60;;;;;;5029689;28;20075;-76
2022/06/27 03:18:52;;;;;;;0.82;0.20;;;17.70;82.40;;;;;;5029231;28;20029;-72
2022/06/27 03:21:20;;;;;;;1.98;0.20;;;17.50;82.40;;;;;;5031905;28;20502;-75
2022/06/27 03:23:50;;;;;;;0.40;0.30;;;17.30;82.80;;;;;;5028573;28;20037;-74
2022/06/27 03:26:18;;;;;;;2.30;0.20;;;17.40;83.20;;;;;;5029004;28;20638;-74
2022/06/27 03:28:47;;;;;;;0.95;0.40;;;17.40;82.40;;;;;;5032802;28;20375;-73
2022/06/27 03:31:15;;;;;;;1.17;0.20;;;17.40;82.40;;;;;;5046503;28;20092;-74
2022/06/27 03:33:42;;;;;;;0.60;0.30;;;17.30;82.30;;;;;;5048131;28;20025;-73
2022/06/27 03:36:11;;;;;;;0.75;0.10;;;17.20;82.60;;;;;;5047944;28;20033;-74
2022/06/27 03:38:38;;;;;;;1.15;0.50;;;17.20;83.10;;;;;;5029258;28;20391;-73
2022/06/27 03:41:05;;;;;;;2.05;0.30;;;17.20;84.20;;;;;;5029534;28;20100;-75
2022/06/27 03:43:33;;;;;;;1.75;0.20;;;17.20;83.70;;;;;;5036255;28;20090;-73
2022/06/27 03:46:00;;;;;;;0.93;0.30;;;17.10;83.70;;;;;;5034995;28;20021;-74
2022/06/27 03:51:12;;;;;;;0.75;0.22;;;17.00;84.40;;;;;;5041401;28;20134;-73
2022/06/27 03:53:40;;;;;;;2.20;0.43;;;17.00;84.90;;;;;;5036822;28;20037;-74
2022/06/27 03:56:07;;;;;;;1.05;0.35;;;17.00;84.10;;;;;;5037140;28;20348;-75
2022/06/27 03:58:34;;;;;;;1.25;0.40;;;17.00;84.80;;;;;;5033987;28;20017;-75
2022/06/27 04:01:03;;;;;;;4.18;0.28;;;17.00;84.30;;;;;;5030593;28;20022;-72
2022/06/27 04:03:31;;;;;;;1.42;0.50;;;17.00;84.60;;;;;;5043316;28;20072;-74
2022/06/27 04:05:58;;;;;;;1.73;0.70;;;16.90;83.80;;;;;;5043715;28;20056;-74
2022/06/27 04:08:27;;;;;;;0.57;0.40;;;16.90;84.30;;;;;;5040926;28;20037;-73
2022/06/27 04:10:55;;;;;;;4.20;0.30;;;17.00;84.40;;;;;;5037028;28;20523;-73
2022/06/27 04:13:23;;;;;;;1.42;0.57;;;17.00;84.70;;;;;;5043304;28;20029;-74
2022/06/27 04:15:51;;;;;;;0.73;0.30;;;17.00;85.30;;;;;;5030395;28;20029;-72
2022/06/27 04:18:18;;;;;;;0.55;0.55;;;17.10;84.30;;;;;;5031490;28;20037;-74
2022/06/27 04:20:45;;;;;;;0.32;0.25;;;17.10;84.30;;;;;;5049739;28;20119;-73
2022/06/27 04:23:13;;;;;;;0.45;0.20;;;17.00;85.20;;;;;;5036124;28;20036;-74
2022/06/27 04:25:42;;;;;;;1.13;0.47;;;17.00;85.60;;;;;;5054688;28;20082;-74
2022/06/27 04:28:09;;;;;;;2.58;0.20;;;17.00;85.80;;;;;;5049114;28;20033;-73
2022/06/27 04:30:36;;;;;;;1.50;0.38;;;16.90;85.00;;;;;;5045179;28;20461;-73
2022/06/27 04:33:04;;;;;;;0.82;0.30;;;16.80;85.40;;;;;;5045055;28;20100;-76
2022/06/27 04:35:32;;;;;;;0.50;0.30;;;16.70;84.90;;;;;;5050882;28;20032;-73
2022/06/27 04:38:00;;;;;;;0.57;0.30;;;16.80;84.70;;;;;;5039228;28;20021;-75
2022/06/27 04:40:28;;;;;;;1.15;0.45;;;16.90;85.30;;;;;;5052598;28;20143;-76
2022/06/27 04:42:56;;;;;;;2.13;0.50;;;17.00;86.10;;;;;;5045656;28;20076;-74
2022/06/27 04:45:24;;;;;;;0.20;0.20;;;17.10;85.40;;;;;;5055909;28;20016;-74
2022/06/27 04:47:52;;;;;;;0.65;0.25;;;17.10;85.50;;;;;;5041742;28;20033;-74
2022/06/27 04:50:22;;;;;;;1.17;0.43;;;17.10;86.30;;;;;;5049013;28;20029;-74
2022/06/27 04:52:51;;;;;;;2.20;0.30;;;17.20;86.50;;;;;;5033920;28;20525;-73
2022/06/27 04:55:20;;;;;;;1.45;0.30;;;17.20;85.90;;;;;;5036645;28;20451;-73
2022/06/27 04:57:48;;;;;;;0.45;0.20;;;16.90;85.40;;;;;;5050693;28;20588;-74
2022/06/27 05:00:17;;;;;;;2.88;0.32;;;16.70;85.70;;;;;;5031931;28;20079;-74
2022/06/27 05:02:45;;;;;;;0.95;0.38;;;16.40;85.00;;;;;;5043253;28;20052;-75
2022/06/27 05:05:12;;;;;;;0.52;0.40;;;16.10;83.60;;;;;;5045909;28;20561;-73
2022/06/27 05:07:40;;;;;;;0.43;0.30;;;15.70;83.40;;;;;;5035878;28;20037;-74
2022/06/27 05:10:08;;;;;;;0.90;0.40;;;15.50;84.00;;;;;;5044494;28;20032;-72
2022/06/27 05:12:35;;;;;;;0.95;0.55;;;15.30;84.30;;;;;;5038456;28;20022;-76
2022/06/27 05:15:03;;;;;;;0.45;0.30;;;15.10;83.70;;;;;;5033544;28;20029;-77
2022/06/27 05:17:30;;;;;;;1.02;0.40;;;14.90;83.90;;;;;;5039244;28;20464;-74
2022/06/27 05:19:57;;;;;;;0.75;0.30;;;14.80;84.00;;;;;;5041999;28;20033;-75
2022/06/27 05:22:25;;;;;;;0.50;0.30;;;14.70;84.10;;;;;;5040099;28;20124;-74
2022/06/27 05:24:52;;;;;;;1.45;0.38;;;14.60;84.30;;;;;;5034825;28;21867;-73
2022/06/27 05:27:20;;;;;;;0.88;0.60;;;14.50;84.20;;;;;;5051051;28;20065;-76
2022/06/27 05:29:47;;;;;;;0.63;0.45;;;14.50;84.30;;;;;;5035744;28;20025;-75
2022/06/27 05:32:14;;;;;;;2.90;0.50;;;14.50;84.80;;;;;;5032744;28;20029;-80
2022/06/27 05:34:42;;;;;;;1.05;0.30;;;14.50;84.30;;;;;;5044492;28;20052;-77
2022/06/27 05:37:09;;;;;;;1.25;0.50;;;14.40;84.30;;;;;;5054743;28;20044;-78
2022/06/27 05:39:37;;;;;;;1.80;0.60;;;14.40;84.10;;;;;;5045303;28;20021;-76
2022/06/27 05:42:05;;;;;;;2.10;1.17;;;14.40;84.50;;;;;;5050696;28;20366;-77
2022/06/27 05:44:33;;;;;;;2.08;1.52;;;14.40;84.80;;;;;;5049826;28;20029;-73
2022/06/27 05:47:00;;;;;;;2.28;0.93;;;14.30;84.60;;;;;;5059113;28;20440;-76
2022/06/27 05:49:28;;;;;;;2.88;1.08;;;14.40;84.20;;;;;;5033400;28;20040;-78
2022/06/27 05:52:00;;;;;;;4.35;2.28;;;14.30;84.30;;;;;;5033637;28;20075;-76
2022/06/27 05:54:28;;;;;;;4.10;1.88;;;14.20;84.40;;;;;;5045997;28;20048;-76
2022/06/27 05:56:56;;;;;;;2.40;2.00;;;14.20;84.40;;;;;;5036340;28;20128;-74
2022/06/27 05:59:24;;;;;;;3.22;3.00;;;14.20;84.60;;;;;;5035902;28;20028;-74
2022/06/27 06:01:52;;;;;;;3.03;1.08;;;14.20;84.70;;;;;;5047630;28;20048;-76
2022/06/27 06:04:20;;;;;;;2.38;1.75;;;14.10;84.60;;;;;;5051421;28;20112;-76
2022/06/27 06:06:48;;;;;;;1.52;1.13;;;14.00;84.50;;;;;;5052595;28;20545;-76
2022/06/27 06:09:16;;;;;;;1.40;0.95;;;14.00;84.90;;;;;;5035110;28;22231;-74
2022/06/27 06:11:46;;;;;;;1.20;0.80;;;13.90;85.40;;;;;;5016168;28;20355;-75
2022/06/27 06:14:15;;;;;;;1.60;1.23;;;13.80;85.50;;;;;;5030821;28;20438;-74
2022/06/27 06:16:43;;;;;;;10.68;1.42;;;13.70;85.50;;;;;;5031228;28;20018;-74
2022/06/27 06:19:11;;;;;;;2.00;1.08;;;13.60;85.70;;;;;;5033796;28;20120;-74
2022/06/27 06:21:38;;;;;;;1.52;1.20;;;13.80;85.70;;;;;;5047301;28;20154;-74
2022/06/27 06:24:06;;;;;;;2.90;0.95;;;13.80;85.20;;;;;;5045026;28;20386;-74
2022/06/27 06:26:34;;;;;;;3.58;1.38;;;13.80;84.90;;;;;;5048783;28;20025;-74
2022/06/27 06:29:12;;;;;;;1.67;0.65;;;13.70;85.10;;;;;;5049620;28;20032;-77
2022/06/27 06:31:44;;;;;;;1.20;0.57;;;13.50;84.70;;;;;;5040854;28;20061;-74
2022/06/27 06:34:15;;;;;;;4.43;1.17;;;13.40;85.00;;;;;;5049060;28;20036;-75
2022/06/27 06:36:44;;;;;;;2.33;0.90;;;13.30;85.50;;;;;;5039130;28;20036;-75
2022/06/27 06:39:13;;;;;;;2.90;2.15;;;13.10;85.70;;;;;;5058023;28;20123;-75
2022/06/27 06:41:40;;;;;;;3.78;0.80;;;13.00;86.60;;;;;;5055235;28;20021;-75
2022/06/27 06:44:09;;;;;;;4.63;1.15;;;12.90;86.50;;;;;;5054839;28;20128;-73
2022/06/27 06:46:36;;;;;;;1.88;1.33;;;12.80;86.50;;;;;;5050793;28;20491;-75
2022/06/27 06:49:06;;;;;;;4.88;1.30;;;12.80;87.20;;;;;;5058460;28;20043;-76
2022/06/27 06:51:39;;;;;;;3.10;0.98;;;12.70;87.50;;;;;;5037228;28;20076;-75
2022/06/27 06:54:07;;;;;;;2.60;1.98;;;12.60;87.80;;;;;;5046191;28;20037;-76
2022/06/27 06:56:36;;;;;;;1.42;1.13;;;12.50;88.30;;;;;;5035112;28;20093;-76
2022/06/27 06:59:04;;;;;;;2.88;0.80;;;12.40;88.60;;;;;;5052593;28;20029;-75
2022/06/27 07:01:33;;;;;;;2.22;1.10;;;12.30;88.40;;;;;;5051079;28;20485;-75
2022/06/27 07:04:01;;;;;;;4.82;1.52;;;12.20;88.60;;;;;;5052250;28;20025;-75
2022/06/27 07:06:30;;;;;;;1.17;0.90;;;12.10;88.60;;;;;;5041528;28;20026;-75
2022/06/27 07:08:59;;;;;;;2.22;1.15;;;12.10;88.80;;;;;;5037454;28;20018;-75
2022/06/27 07:11:31;;;;;;;1.80;0.70;;;12.10;88.80;;;;;;5044168;28;20079;-75
2022/06/27 07:14:00;;;;;;;0.98;0.65;;;12.00;89.10;;;;;;5049521;28;20306;-75
2022/06/27 07:16:28;;;;;;;2.85;1.23;;;11.90;89.10;;;;;;5042265;28;20028;-74
2022/06/27 07:18:57;;;;;;;4.72;1.20;;;11.90;89.30;;;;;;5039372;28;20068;-73
2022/06/27 07:21:28;;;;;;;3.63;1.00;;;11.80;89.70;;;;;;5032365;28;20126;-75
2022/06/27 07:23:55;;;;;;;0.82;0.60;;;11.70;90.00;;;;;;5029489;28;20044;-75
2022/06/27 07:26:24;;;;;;;0.93;0.77;;;11.70;90.10;;;;;;5033696;28;20467;-75
2022/06/27 07:28:52;;;;;;;5.00;1.25;;;11.60;90.00;;;;;;5029447;28;20479;-78
2022/06/27 07:31:19;;;;;;;3.47;1.20;;;11.50;90.00;;;;;;5029402;28;20032;-78
2022/06/27 07:33:51;;;;;;;2.20;0.60;;;11.50;90.10;;;;;;5031700;28;20053;-76
2022/06/27 07:36:19;;;;;;;4.70;0.98;;;11.50;90.00;;;;;;5032858;28;20162;-74
2022/06/27 07:38:49;;;;;;;1.20;0.80;;;11.40;90.00;;;;;;5029246;28;20044;-74
2022/06/27 07:41:20;;;;;;;2.00;0.90;;;11.40;90.20;;;;;;5032509;28;20098;-74
2022/06/27 07:43:49;;;;;;;2.50;0.82;;;11.40;90.00;;;;;;5038235;28;20045;-74
2022/06/27 07:46:17;;;;;;;1.02;0.40;;;11.30;90.10;;;;;;5029221;28;20364;-76
2022/06/27 07:48:46;;;;;;;1.27;0.57;;;11.30;90.10;;;;;;5031599;28;20870;-75
2022/06/27 07:51:19;;;;;;;3.22;0.73;;;11.20;90.30;;;;;;5028587;28;20115;-77
2022/06/27 07:53:48;;;;;;;1.70;0.63;;;11.20;90.30;;;;;;5032823;28;20049;-77
2022/06/27 07:56:17;;;;;;;2.35;0.75;;;11.10;90.20;;;;;;5038415;28;20036;-76
2022/06/27 07:58:45;;;;;;;0.93;0.40;;;11.10;90.10;;;;;;5031331;28;20724;-76
2022/06/27 08:01:15;;;;;;;0.82;0.70;;;11.10;90.20;;;;;;5031756;28;20052;-74
2022/06/27 08:03:44;;;;;;;1.00;0.38;;;11.00;90.10;;;;;;5031596;28;20039;-76
2022/06/27 08:06:21;;;;;;;1.15;0.60;;;11.00;90.10;;;;;;5034111;28;20562;-77
2022/06/27 08:08:52;;;;;;;0.75;0.50;;;11.00;90.10;;;;;;5034107;28;20029;-76
2022/06/27 08:11:25;;;;;;;2.15;0.73;;;11.00;89.80;;;;;;5033580;28;20136;-76
2022/06/27 08:13:55;;;;;;;1.75;0.45;;;11.00;89.90;;;;;;5036397;28;20029;-76
2022/06/27 08:16:24;;;;;;;1.67;0.57;;;10.90;89.60;;;;;;5037620;28;20347;-77
2022/06/27 08:18:52;;;;;;;3.80;0.47;;;10.90;89.00;;;;;;5038584;28;20163;-77
2022/06/27 08:21:27;;;;;;;3.10;0.75;;;10.90;89.00;;;;;;5042368;28;20108;-76
2022/06/27 08:24:00;;;;;;;3.33;0.47;;;11.00;88.70;;;;;;5040662;28;20037;-76
2022/06/27 08:26:30;;;;;;;2.60;0.30;;;10.90;88.10;;;;;;5031958;28;20022;-76
2022/06/27 08:29:02;;;;;;;1.50;0.32;;;11.00;88.30;;;;;;5033673;28;20037;-76
2022/06/27 08:31:30;;;;;;;0.70;0.40;;;10.90;87.70;;;;;;5039335;28;20514;-76
2022/06/27 08:34:01;;;;;;;4.05;0.50;;;10.90;87.50;;;;;;5051612;28;20029;-75
2022/06/27 08:36:30;;;;;;;1.60;0.40;;;10.90;87.70;;;;;;5052141;28;20032;-78
2022/06/27 08:39:07;;;;;;;3.47;0.70;;;10.80;87.70;;;;;;5035980;28;20110;-76
2022/06/27 08:41:35;;;;;;;0.98;0.40;;;10.80;87.70;;;;;;5018632;28;20063;-75
2022/06/27 08:44:06;;;;;;;1.63;0.93;;;10.80;88.20;;;;;;5046222;28;20029;-76
2022/06/27 08:46:34;;;;;;;1.35;0.35;;;10.80;88.10;;;;;;5048836;28;20021;-77
2022/06/27 08:49:03;;;;;;;3.30;0.60;;;10.70;87.80;;;;;;5036018;28;20033;-77
2022/06/27 08:51:31;;;;;;;12.63;7.03;;;10.70;87.90;;;;;;5041820;28;20049;-75
2022/06/27 08:53:59;;;;;;;15.63;7.90;;;10.70;88.30;;;;;;5046626;28;20061;-77
2022/06/27 08:56:29;;;;;;;10.13;5.75;;;10.60;88.50;;;;;;5036974;28;20021;-76
2022/06/27 08:58:59;;;;;;;8.90;3.90;;;10.60;88.80;;;;;;5047273;28;20033;-77
2022/06/27 09:01:27;;;;;;;4.75;2.80;;;10.50;88.70;;;;;;5047864;28;20032;-77
2022/06/27 09:04:04;;;;;;;6.63;3.63;;;10.40;88.80;;;;;;5044915;28;20112;-77
2022/06/27 09:06:44;;;;;;;5.43;4.15;;;10.40;88.90;;;;;;5040388;28;20476;-78
2022/06/27 09:09:14;;;;;;;3.50;2.00;;;10.40;89.10;;;;;;5049417;28;20071;-75
2022/06/27 09:11:48;;;;;;;3.20;2.83;;;10.40;89.40;;;;;;5034146;28;20025;-74
2022/06/27 09:14:43;;;;;;;4.00;2.33;;;10.30;89.80;;;;;;5034812;28;20037;-76
2022/06/27 09:17:15;;;;;;;6.32;2.63;;;10.20;89.90;;;;;;5047226;28;20363;-78
2022/06/27 09:19:52;;;;;;;8.27;3.50;;;10.20;89.90;;;;;;5038814;28;20141;-77
2022/06/27 09:22:23;;;;;;;3.10;1.52;;;10.10;90.20;;;;;;5031204;28;20120;-77
2022/06/27 09:25:14;;;;;;;2.05;0.60;;;10.10;90.10;;;;;;5054200;28;20112;-77
2022/06/27 09:27:42;;;;;;;1.60;0.55;;;10.10;90.20;;;;;;5053957;28;20025;-76
2022/06/27 09:30:22;;;;;;;2.25;0.52;;;10.00;90.30;;;;;;5055528;28;20478;-77
2022/06/27 09:32:53;;;;;;;1.02;0.55;;;9.90;90.30;;;;;;5035894;28;20079;-77
2022/06/27 09:35:32;;;;;;;1.25;0.63;;;9.90;90.50;;;;;;5055300;28;20016;-77
2022/06/27 09:38:04;;;;;;;1.63;0.70;;;9.80;90.70;;;;;;5043815;28;20040;-76
2022/06/27 09:40:33;;;;;;;1.80;0.75;;;9.80;90.80;;;;;;5059126;28;20021;-77
2022/06/27 09:43:01;;;;;;;2.92;0.60;;;9.70;90.90;;;;;;5040507;28;20045;-76
2022/06/27 09:45:29;;;;;;;1.50;0.60;;;9.60;91.10;;;;;;5050601;28;20025;-77
2022/06/27 09:48:04;;;;;;;2.40;0.70;;;9.60;91.20;;;;;;5043221;28;20021;-77
2022/06/27 09:50:35;;;;;;;2.55;0.70;;;9.60;91.20;;;;;;5031553;28;20025;-78
2022/06/27 09:53:03;;;;;;;0.63;0.50;;;9.50;91.40;;;;;;5031780;28;20061;-77
2022/06/27 09:55:32;;;;;;;1.20;0.68;;;9.50;91.50;;;;;;5034686;28;20414;-76
2022/06/27 09:58:01;;;;;;;1.20;0.47;;;9.50;91.80;;;;;;5044087;28;20036;-77
2022/06/27 10:00:29;;;;;;;2.28;0.75;;;9.40;91.90;;;;;;5050105;28;20102;-77
2022/06/27 10:02:58;;;;;;;1.23;0.68;;;9.40;92.10;;;;;;5038075;28;20043;-78
2022/06/27 10:05:25;;;;;;;4.18;1.33;;;9.40;92.10;;;;;;5050008;28;20474;-77
2022/06/27 10:08:05;;;;;;;0.90;0.45;;;9.40;92.10;;;;;;5043282;28;20040;-75
2022/06/27 10:11:01;;;;;;;1.30;0.77;;;9.50;92.30;;;;;;5032223;28;20021;-76
2022/06/27 10:13:29;;;;;;;1.45;0.40;;;9.60;92.30;;;;;;5032769;28;20037;-76
2022/06/27 10:16:06;;;;;;;2.05;0.88;;;9.70;92.10;;;;;;5048431;28;20043;-75
2022/06/27 10:18:53;;;;;;;1.83;1.35;;;9.70;92.20;;;;;;5030460;28;20033;-76
2022/06/27 10:21:40;;;;;;;1.85;1.25;;;9.80;92.10;;;;;;5030643;28;20029;-76
2022/06/27 10:24:24;;;;;;;2.83;1.52;;;9.80;92.10;;;;;;5048281;28;20041;-76
2022/06/27 10:26:56;;;;;;;3.05;1.70;;;9.70;92.40;;;;;;5047880;28;20147;-76
2022/06/27 10:29:29;;;;;;;2.05;1.65;;;9.70;92.40;;;;;;5034410;28;20029;-75
2022/06/27 10:32:01;;;;;;;2.45;1.45;;;9.70;92.60;;;;;;5041114;28;20021;-76
2022/06/27 10:34:43;;;;;;;2.75;1.05;;;9.70;92.70;;;;;;5037469;28;20037;-76
2022/06/27 10:37:40;;;;;;;4.38;1.90;;;9.70;92.70;;;;;;5048342;28;20116;-77
2022/06/27 10:40:23;;;;;;;3.63;1.30;;;9.70;92.60;;;;;;5020442;28;20123;-76
2022/06/27 10:42:56;;;;;;;4.63;1.65;;;9.60;92.80;;;;;;5034760;28;20486;-76
2022/06/27 10:45:27;;;;;;;3.88;1.70;;;9.50;92.80;;;;;;5042854;28;20033;-76
2022/06/27 10:48:01;;;;;;;2.08;1.27;;;9.40;93.00;;;;;;5030978;28;20033;-76
2022/06/27 10:50:40;;;;;;;5.30;0.93;;;9.40;93.00;;;;;;5046845;28;20032;-77
2022/06/27 10:53:24;;;;;;;3.47;1.48;;;9.40;92.90;;;;;;5033719;28;20067;-76
2022/06/27 10:55:52;;;;;;;4.32;1.23;;;9.50;92.90;;;;;;5049995;28;20033;-77
2022/06/27 10:58:23;;;;;;;1.45;0.93;;;9.50;92.70;;;;;;5033816;28;20029;-76
2022/06/27 11:00:51;;;;;;;1.80;0.70;;;9.60;92.70;;;;;;5023779;28;20054;-76
2022/06/27 11:03:26;;;;;;;1.42;1.00;;;9.70;92.60;;;;;;5044042;28;20887;-75
2022/06/27 11:05:59;;;;;;;3.03;1.00;;;9.70;92.50;;;;;;5048337;28;20460;-76
2022/06/27 11:08:27;;;;;;;0.68;0.60;;;9.80;92.40;;;;;;5040527;28;20030;-76
2022/06/27 11:10:54;;;;;;;1.20;0.70;;;9.80;92.30;;;;;;5044961;28;20033;-76
2022/06/27 11:13:43;;;;;;;2.15;0.80;;;9.70;92.40;;;;;;5034579;28;20064;-76
2022/06/27 11:16:31;;;;;;;1.95;0.80;;;9.60;92.60;;;;;;5045849;28;20036;-76
2022/06/27 11:19:04;;;;;;;1.98;0.98;;;9.40;92.60;;;;;;5040928;28;20393;-73
2022/06/27 11:21:35;;;;;;;3.00;1.73;;;9.40;92.70;;;;;;5044470;28;20441;-75
2022/06/27 11:24:11;;;;;;;1.55;1.05;;;9.20;92.80;;;;;;5031665;28;20517;-73
2022/06/27 11:26:46;;;;;;;2.42;1.45;;;9.20;93.00;;;;;;5043372;28;20572;-77
2022/06/27 11:32:11;;;;;;;3.45;1.48;;;9.00;93.30;;;;;;5032862;28;20068;-77
2022/06/27 11:34:44;;;;;;;2.40;1.77;;;8.90;93.50;;;;;;5033916;28;20026;-78
2022/06/27 11:37:17;;;;;;;2.80;1.13;;;8.80;93.60;;;;;;5034281;28;20033;-77
2022/06/27 11:40:06;;;;;;;0.90;0.60;;;8.70;93.70;;;;;;5051407;28;20033;-77
2022/06/27 11:42:35;;;;;;;3.60;0.60;;;8.70;93.70;;;;;;5035386;28;20036;-78
2022/06/27 11:45:10;;;;;;;2.70;1.35;;;8.70;93.70;;;;;;5032471;28;20039;-77
2022/06/27 11:47:41;;;;;;;2.93;1.00;;;8.70;93.70;;;;;;5047483;28;20021;-77
2022/06/27 11:50:12;;;;;;;0.98;0.60;;;8.70;93.70;;;;;;5032983;28;20022;-76
2022/06/27 11:52:43;;;;;;;3.05;0.70;;;8.70;93.80;;;;;;5041033;28;20238;-77
2022/06/27 11:55:13;;;;;;;4.50;0.60;;;8.70;93.90;;;;;;5032804;28;20041;-77
2022/06/27 11:57:54;;;;;;;3.80;0.82;;;8.70;94.00;;;;;;5045596;28;20056;-78
2022/06/27 12:00:27;;;;;;;6.28;1.50;;;8.70;94.20;;;;;;5050755;28;20040;-76
2022/06/27 12:03:04;;;;;;;2.45;0.85;;;8.70;94.30;;;;;;5038609;28;20083;-77
2022/06/27 12:05:32;;;;;;;1.42;0.80;;;8.60;94.60;;;;;;5052866;28;20072;-76
2022/06/27 12:08:03;;;;;;;2.05;0.73;;;8.60;94.70;;;;;;5040924;28;20108;-77
2022/06/27 12:10:38;;;;;;;2.30;0.57;;;8.60;94.90;;;;;;5040033;28;20921;-78
2022/06/27 12:13:07;;;;;;;1.05;0.90;;;8.60;95.10;;;;;;5041119;28;20021;-77
2022/06/27 12:15:37;;;;;;;0.63;0.55;;;8.50;95.30;;;;;;5048848;28;20431;-77
2022/06/27 12:18:12;;;;;;;0.88;0.65;;;8.50;95.30;;;;;;5033614;28;20024;-78
2022/06/27 12:20:41;;;;;;;1.98;0.50;;;8.40;95.40;;;;;;5043885;28;20039;-77
2022/06/27 12:23:09;;;;;;;3.30;0.60;;;8.40;95.50;;;;;;5054644;28;20067;-77
2022/06/27 12:25:36;;;;;;;0.98;0.80;;;8.40;95.60;;;;;;5056002;28;20020;-76
2022/06/27 12:28:08;;;;;;;2.05;0.60;;;8.40;95.70;;;;;;5034716;28;20363;-78
2022/06/27 12:30:36;;;;;;;2.42;0.68;;;8.40;95.80;;;;;;5052105;28;20023;-77
2022/06/27 12:33:05;;;;;;;3.40;0.30;;;8.40;95.90;;;;;;5050155;28;20090;-77
2022/06/27 12:35:33;;;;;;;1.33;0.50;;;8.40;96.00;;;;;;5055185;28;20059;-77
2022/06/27 12:38:01;;;;;;;1.98;0.70;;;8.40;96.10;;;;;;5040064;28;20075;-76
2022/06/27 12:40:29;;;;;;;1.10;0.70;;;8.50;96.20;;;;;;5051118;28;20021;-76
2022/06/27 12:42:57;;;;;;;2.17;1.00;;;8.50;96.20;;;;;;5041029;28;20574;-77
2022/06/27 12:45:24;;;;;;;3.70;0.73;;;8.50;96.30;;;;;;5035480;28;20131;-77
2022/06/27 12:47:52;;;;;;;1.00;0.60;;;8.50;96.30;;;;;;5042413;28;20112;-76
2022/06/27 12:50:20;;;;;;;2.35;0.90;;;8.50;96.40;;;;;;5049779;28;20484;-77
2022/06/27 12:52:48;;;;;;;1.13;0.63;;;8.50;96.50;;;;;;5042657;28;20155;-78
2022/06/27 12:55:15;;;;;;;4.15;0.98;;;8.50;96.60;;;;;;5037100;28;20029;-77
2022/06/27 12:57:43;;;;;;;2.17;0.93;;;8.50;96.60;;;;;;5036139;28;20123;-77
2022/06/27 13:00:11;;;;;;;3.17;1.35;;;8.60;96.70;;;;;;5034825;28;20112;-77
2022/06/27 13:02:38;;;;;;;2.13;1.40;;;8.50;96.70;;;;;;5041065;28;20407;-77
2022/06/27 13:05:06;;;;;;;2.15;0.70;;;8.50;96.90;;;;;;5041946;28;20032;-77
2022/06/27 13:07:33;;;;;;;3.05;1.00;;;8.50;97.00;;;;;;5034959;28;20049;-77
2022/06/27 13:10:00;;;;;;;1.35;0.85;;;8.50;97.20;;;;;;5028571;28;20025;-77
2022/06/27 13:12:28;;;;;;;1.75;0.77;;;8.40;97.30;;;;;;5041699;28;20390;-77